Accueil
METAR-TAF:

METAR-TAF

Aéroports :

Aéroport international Jinnah

Karâchi, Pakistan

latitude: 24-54N, longitude: 067-08E, altitude: 21 m

Observation

Le bulletin a été fait il y a 6 minutes, à 18:00 UTC
Vent 12 kt de sud/sud-ouest
Température 31°C
Humidité 79%
Pression 996 hPa
Visibilité: 6000 m
Nuages fragmentés à une hauteur de 2000 ft

METAR: OPKC 201800Z 21012KT 6000 BKN020 31/27 Q0996 NOSIG

Heure: 23:06 (18:06 UTC)

Prévision

Le bulletin a été fait il y a 1 heure et 6 minutes, à 17:00 UTC
Prévision valable du 20 à 18 UTC au 21 à 24 UTC
Vent 10 kt de sud-ouest avec des rafales jusqu'à 20 kt
Visibilité: 6000 m
Nuages fragmentés à une hauteur de 2000 ft
Temporairement
du 21 à 01 UTC au 21 à 05 UTC
Vent 10 kt de ouest/sud-ouest
Visibilité: 4000 m
Nuages fragmentés à une hauteur de 2000 ft
brume sèche,

TAF: OPKC 201700Z 2018/2124 23010G20KT 6000 BKN020 TEMPO 2101/2105 25010KT 4000 HZ BKN020

Observations et prévisions météorologiques de plus de 4000 aéroports (messages METAR et TAF).

Les stations disponibles sont représentées par des disques jaunes et rouges sur la carte.

Passer la souris dessus pour voir le nom de la station.

Cliquer dessus pour voir les observations et prévisions météorologiques.

Pour changer de carte: cliquez sur les boutons verts avec une croix noire pour zoomer, sur le bouton vert avec un tiret pour effectuer un zoom arrière, ou sur les flèches vertes pour les cartes adjacentes.


METAR-TAF: